Time;durP1;ratioP1;P1;durP2;ratioP2;P2;SDS_P1;SDS_P2;PMS_P1;PMS_P2;Temp;Humidity;BMP_temperature;BMP_pressure;BME280_temperature;BME280_humidity;BME280_pressure;Samples;Min_cycle;Max_cycle;Signal;HPM_P1;HPM_P2
2023/06/16 00:01:00;;;;;;;5.70;4.00;;;22.50;47.40;;;;;;4888591;29;20550;-84
2023/06/16 00:03:55;;;;;;;3.97;3.67;;;22.50;47.70;;;;;;4840391;29;20504;-84
2023/06/16 00:06:47;;;;;;;5.33;4.90;;;22.50;48.30;;;;;;4848058;29;20425;-85
2023/06/16 00:12:53;;;;;;;5.93;4.90;;;22.50;47.50;;;;;;4849809;29;20514;-83
2023/06/16 00:15:29;;;;;;;5.53;4.97;;;22.60;48.00;;;;;;4871444;29;20519;-83
2023/06/16 00:18:35;;;;;;;5.47;4.97;;;22.60;48.00;;;;;;4838322;29;20437;-85
2023/06/16 00:21:39;;;;;;;4.10;3.63;;;22.60;47.80;;;;;;4871686;29;20485;-85
2023/06/16 00:25:03;;;;;;;4.23;3.87;;;22.60;47.50;;;;;;4854190;29;20457;-84
2023/06/16 00:28:07;;;;;;;3.70;3.40;;;22.50;47.70;;;;;;4837348;29;20514;-85
2023/06/16 00:31:01;;;;;;;3.53;3.23;;;22.50;47.40;;;;;;4862405;29;20545;-83
2023/06/16 00:34:14;;;;;;;4.13;3.73;;;22.50;46.80;;;;;;4821523;29;20469;-82
2023/06/16 00:36:58;;;;;;;3.43;3.13;;;22.50;46.80;;;;;;4863213;29;20471;-81
2023/06/16 00:40:10;;;;;;;;;;;;;;;;;;;;;
2023/06/16 00:43:06;;;;;;;3.20;2.90;;;22.40;46.60;;;;;;4908354;29;20515;-81
2023/06/16 00:45:42;;;;;;;3.47;3.17;;;22.40;46.60;;;;;;4888341;29;20473;-84
2023/06/16 00:48:44;;;;;;;4.40;4.00;;;22.40;46.90;;;;;;4891129;29;20589;-85
2023/06/16 00:57:00;;;;;;;4.97;3.53;;;22.30;47.60;;;;;;4764971;29;20673;-84
2023/06/16 00:59:29;;;;;;;4.77;3.57;;;22.30;48.00;;;;;;4768245;29;21806;-82
2023/06/16 01:02:39;;;;;;;4.40;3.37;;;22.20;47.30;;;;;;4882504;23;20507;-85
2023/06/16 01:09:18;;;;;;;3.77;3.43;;;22.20;47.20;;;;;;4885135;29;20471;-86
2023/06/16 01:12:10;;;;;;;;;;;;;;;;;;;;;
2023/06/16 01:14:57;;;;;;;3.73;3.37;;;22.30;46.70;;;;;;4858925;29;20532;-81
2023/06/16 01:18:00;;;;;;;5.80;3.83;;;22.20;47.10;;;;;;4823144;29;20495;-84
2023/06/16 01:28:18;;;;;;;4.47;3.27;;;22.10;47.30;;;;;;4865806;29;20542;-83
2023/06/16 01:32:19;;;;;;;;;;;;;;;;;;;;;
2023/06/16 01:35:03;;;;;;;3.87;3.57;;;22.10;47.90;;;;;;4796719;29;20502;-85
2023/06/16 01:38:07;;;;;;;3.87;3.57;;;22.10;48.00;;;;;;4852977;29;20468;-85
2023/06/16 01:41:17;;;;;;;4.77;3.67;;;22.10;48.30;;;;;;4893474;29;20812;-84
2023/06/16 01:45:02;;;;;;;4.37;3.37;;;22.10;48.30;;;;;;4897624;29;20817;-85
2023/06/16 01:48:34;;;;;;;3.80;3.50;;;22.10;48.70;;;;;;4879621;29;20459;-82
2023/06/16 01:51:57;;;;;;;3.97;3.67;;;22.10;48.80;;;;;;4905141;29;21104;-84
2023/06/16 01:54:50;;;;;;;3.77;3.47;;;22.30;48.90;;;;;;4903655;29;20605;-84
2023/06/16 01:57:58;;;;;;;7.87;4.20;;;22.20;49.20;;;;;;4891163;29;20458;-84
2023/06/16 02:01:08;;;;;;;4.00;3.60;;;22.30;49.70;;;;;;4892326;29;20481;-84
2023/06/16 02:04:14;;;;;;;4.50;3.73;;;22.00;49.70;;;;;;4905704;29;20459;-85
2023/06/16 02:07:18;;;;;;;4.57;4.17;;;22.00;50.10;;;;;;4910183;29;20492;-83
2023/06/16 02:11:08;;;;;;;4.20;3.80;;;21.90;50.30;;;;;;4879438;29;20470;-85
2023/06/16 02:14:13;;;;;;;4.33;3.93;;;21.80;50.50;;;;;;4838148;29;20921;-85
2023/06/16 02:16:44;;;;;;;5.00;3.73;;;21.90;50.80;;;;;;4834914;29;20537;-84
2023/06/16 02:19:44;;;;;;;3.80;3.50;;;21.80;50.40;;;;;;4881728;29;20465;-84
2023/06/16 02:22:53;;;;;;;4.80;3.67;;;21.70;50.70;;;;;;4888154;29;20490;-85
2023/06/16 02:25:53;;;;;;;;;;;;;;;;;;;;;
2023/06/16 02:35:37;;;;;;;4.97;4.10;;;21.70;53.10;;;;;;4852254;29;20601;-86
2023/06/16 02:39:26;;;;;;;5.17;4.40;;;21.50;53.70;;;;;;4780911;29;20560;-81
2023/06/16 02:42:58;;;;;;;4.87;4.10;;;21.40;53.90;;;;;;4797458;29;20503;-83
2023/06/16 02:46:31;;;;;;;4.33;3.70;;;21.40;53.70;;;;;;4765764;29;20461;-82
2023/06/16 02:49:54;;;;;;;4.40;4.00;;;21.60;53.30;;;;;;4768963;29;20489;-81
2023/06/16 02:56:41;;;;;;;4.70;4.40;;;21.50;53.70;;;;;;4766720;29;20544;-85
2023/06/16 02:59:37;;;;;;;5.93;5.43;;;21.30;54.10;;;;;;4749553;29;21323;-83
2023/06/16 03:02:39;;;;;;;5.00;4.60;;;21.30;53.90;;;;;;4795116;29;20463;-84
2023/06/16 03:05:22;;;;;;;6.03;5.43;;;21.30;54.20;;;;;;4803630;29;20763;-85
2023/06/16 03:07:50;;;;;;;5.53;5.03;;;21.10;54.40;;;;;;4834120;29;20458;-84
2023/06/16 03:10:57;;;;;;;5.97;5.47;;;21.10;54.30;;;;;;4921676;29;20481;-81
2023/06/16 03:14:42;;;;;;;5.57;5.07;;;21.00;54.70;;;;;;4906585;29;20461;-83
2023/06/16 03:17:45;;;;;;;7.93;5.47;;;20.90;55.40;;;;;;4887953;29;20462;-82
2023/06/16 03:20:37;;;;;;;5.80;5.20;;;20.80;55.60;;;;;;4893525;29;21169;-83
2023/06/16 03:23:54;;;;;;;7.43;6.00;;;20.80;55.50;;;;;;4894566;29;20546;-84
2023/06/16 03:26:46;;;;;;;6.30;5.37;;;20.60;56.00;;;;;;4897918;29;20470;-86
2023/06/16 03:29:35;;;;;;;6.03;5.50;;;20.60;55.90;;;;;;4898372;29;20575;-83
2023/06/16 03:32:40;;;;;;;8.03;5.77;;;20.50;56.40;;;;;;4922889;23;20563;-84
2023/06/16 03:36:27;;;;;;;6.23;5.60;;;20.40;57.20;;;;;;4852289;28;20576;-83
2023/06/16 03:39:55;;;;;;;9.73;5.30;;;20.40;57.20;;;;;;4877012;28;20457;-84
2023/06/16 03:42:55;;;;;;;6.43;5.50;;;20.50;57.80;;;;;;4890696;28;21024;-84
2023/06/16 03:45:57;;;;;;;6.47;5.90;;;20.50;58.50;;;;;;4913239;28;20448;-84
2023/06/16 03:48:38;;;;;;;7.93;5.60;;;20.70;59.80;;;;;;4929253;28;21118;-84
2023/06/16 03:51:16;;;;;;;6.20;5.70;;;20.90;60.60;;;;;;4927917;28;20560;-83
2023/06/16 03:54:18;;;;;;;6.60;5.77;;;20.70;60.60;;;;;;4921703;28;20456;-84
2023/06/16 03:57:38;;;;;;;6.73;6.13;;;20.50;61.20;;;;;;4915179;28;22086;-83
2023/06/16 04:03:36;;;;;;;8.83;5.80;;;20.40;60.60;;;;;;4859815;29;20852;-82
2023/06/16 04:06:40;;;;;;;9.53;6.07;;;20.40;61.40;;;;;;4859719;29;20493;-82
2023/06/16 04:09:48;;;;;;;7.10;6.40;;;20.30;61.60;;;;;;4867645;29;20467;-85
2023/06/16 04:12:40;;;;;;;6.53;5.83;;;20.20;63.10;;;;;;4965251;23;20511;-84
2023/06/16 04:15:39;;;;;;;8.40;7.30;;;20.10;64.40;;;;;;4875906;29;20516;-82
2023/06/16 04:22:36;;;;;;;8.00;6.27;;;20.30;64.90;;;;;;4876872;29;20530;-82
2023/06/16 04:25:55;;;;;;;7.23;5.83;;;20.20;64.30;;;;;;4854417;29;20473;-84
2023/06/16 04:32:38;;;;;;;14.30;7.80;;;20.00;65.00;;;;;;4803811;29;20593;-83
2023/06/16 04:35:31;;;;;;;13.20;7.00;;;19.90;65.80;;;;;;4812259;29;21647;-84
2023/06/16 04:38:40;;;;;;;;;;;;;;;;;;;;;
2023/06/16 04:41:19;;;;;;;12.80;8.10;;;20.10;65.30;;;;;;4885976;29;20495;-83
2023/06/16 04:44:08;;;;;;;9.23;7.20;;;20.20;65.90;;;;;;4870375;29;21120;-84
2023/06/16 04:47:09;;;;;;;15.77;7.10;;;20.30;66.20;;;;;;4867309;29;20478;-84
2023/06/16 04:50:04;;;;;;;11.67;7.90;;;20.20;63.80;;;;;;4880486;29;20592;-85
2023/06/16 04:53:36;;;;;;;15.07;7.73;;;20.30;63.90;;;;;;4855697;29;20594;-84
2023/06/16 04:57:15;;;;;;;;;;;;;;;;;;;;;
2023/06/16 05:00:27;;;;;;;11.57;6.43;;;20.20;64.10;;;;;;4876115;29;20467;-84
2023/06/16 05:03:17;;;;;;;9.27;7.67;;;20.20;63.80;;;;;;4854402;29;20525;-83
2023/06/16 05:13:28;;;;;;;8.53;6.50;;;20.10;64.30;;;;;;4864344;29;20533;-84
2023/06/16 05:16:29;;;;;;;7.33;6.63;;;20.10;66.30;;;;;;4865943;29;20478;-84
2023/06/16 05:22:41;;;;;;;7.20;6.50;;;20.20;67.80;;;;;;4880148;29;20539;-84
2023/06/16 05:25:57;;;;;;;7.27;6.40;;;20.20;68.60;;;;;;4886994;29;20478;-86
2023/06/16 05:32:49;;;;;;;6.87;6.27;;;20.40;66.10;;;;;;4765618;29;20496;-84
2023/06/16 05:36:08;;;;;;;10.23;7.73;;;20.50;66.20;;;;;;4760446;29;20925;-85
2023/06/16 05:38:57;;;;;;;7.63;6.83;;;20.50;65.80;;;;;;4741375;29;20572;-84
2023/06/16 05:41:58;;;;;;;8.43;7.03;;;20.60;65.80;;;;;;4755935;29;20485;-84
2023/06/16 05:44:52;;;;;;;8.23;7.43;;;20.70;65.10;;;;;;4770948;29;20474;-85
2023/06/16 05:47:38;;;;;;;7.87;7.10;;;20.90;63.50;;;;;;4751072;30;20552;-82
2023/06/16 05:50:51;;;;;;;7.50;6.80;;;20.60;63.20;;;;;;4824947;29;20460;-83
2023/06/16 05:54:12;;;;;;;7.47;6.73;;;20.40;63.20;;;;;;4830217;29;20620;-85
2023/06/16 06:02:39;;;;;;;7.50;6.80;;;20.70;60.70;;;;;;4915588;29;21469;-84
2023/06/16 06:05:24;;;;;;;;;;;;;;;;;;;;;
2023/06/16 06:07:56;;;;;;;7.53;6.83;;;21.20;59.40;;;;;;4905050;29;20461;-84
2023/06/16 06:13:49;;;;;;;10.17;6.73;;;21.20;58.70;;;;;;4906311;29;20476;-82
2023/06/16 06:17:06;;;;;;;7.50;6.33;;;21.20;59.40;;;;;;4906235;29;20488;-82
2023/06/16 06:19:50;;;;;;;7.20;6.50;;;21.20;59.30;;;;;;4907990;29;20474;-85
2023/06/16 06:23:02;;;;;;;7.10;6.17;;;21.30;59.40;;;;;;4899132;29;20470;-83
2023/06/16 06:26:12;;;;;;;6.77;5.87;;;21.30;58.50;;;;;;4904298;29;20488;-82
2023/06/16 06:29:15;;;;;;;9.03;6.43;;;21.30;59.20;;;;;;4915868;29;20545;-86
2023/06/16 06:32:07;;;;;;;7.20;6.50;;;21.20;59.10;;;;;;4917548;29;20489;-85
2023/06/16 06:35:24;;;;;;;6.83;5.97;;;21.30;59.30;;;;;;4869675;29;21861;-84
2023/06/16 06:37:57;;;;;;;6.60;6.00;;;21.40;59.00;;;;;;4898343;29;20459;-84
2023/06/16 06:41:17;;;;;;;7.40;5.50;;;21.50;58.30;;;;;;4884033;29;20470;-84
2023/06/16 06:44:04;;;;;;;8.20;5.70;;;21.60;58.00;;;;;;4862292;29;20589;-82
2023/06/16 06:47:02;;;;;;;7.23;6.10;;;21.80;56.90;;;;;;4906937;29;20458;-84
2023/06/16 06:50:29;;;;;;;6.43;5.40;;;21.90;57.10;;;;;;4887577;29;20492;-82
2023/06/16 06:53:16;;;;;;;5.50;5.00;;;21.90;55.90;;;;;;4912990;29;20538;-85
2023/06/16 06:56:00;;;;;;;6.97;5.40;;;21.90;56.90;;;;;;4909880;29;20498;-85
2023/06/16 06:58:44;;;;;;;5.43;4.73;;;21.90;56.50;;;;;;4897130;29;20621;-84
2023/06/16 07:01:41;;;;;;;5.60;5.10;;;21.90;55.50;;;;;;4904226;29;21464;-84
2023/06/16 07:04:18;;;;;;;7.03;5.37;;;22.30;54.60;;;;;;4911659;29;20454;-83
2023/06/16 07:07:07;;;;;;;5.90;5.30;;;22.60;54.80;;;;;;4934122;28;20510;-84
2023/06/16 07:09:48;;;;;;;5.93;5.33;;;22.50;54.90;;;;;;4902689;29;20465;-84
2023/06/16 07:12:31;;;;;;;6.50;4.80;;;22.40;55.20;;;;;;4877132;29;20470;-83
2023/06/16 07:15:18;;;;;;;5.07;4.57;;;22.60;55.00;;;;;;4913497;29;20465;-84
2023/06/16 07:17:57;;;;;;;6.40;5.73;;;22.60;54.00;;;;;;4917298;29;20577;-85
2023/06/16 07:21:08;;;;;;;7.40;5.87;;;23.00;54.00;;;;;;4896327;29;20474;-84
2023/06/16 07:24:41;;;;;;;5.70;5.07;;;23.10;52.20;;;;;;4918037;29;20457;-84
2023/06/16 07:27:21;;;;;;;5.63;4.70;;;22.90;52.00;;;;;;4890413;29;20829;-83
2023/06/16 07:33:41;;;;;;;7.07;4.87;;;23.30;51.50;;;;;;4825145;29;20448;-83
2023/06/16 07:39:40;;;;;;;5.57;4.60;;;23.20;51.90;;;;;;4821837;29;20473;-85
2023/06/16 07:42:46;;;;;;;5.97;3.93;;;23.20;52.00;;;;;;4895798;23;20574;-85
2023/06/16 07:45:57;;;;;;;6.57;4.87;;;23.40;52.10;;;;;;4865481;29;20479;-84
2023/06/16 07:49:19;;;;;;;5.27;4.43;;;23.50;51.80;;;;;;4880662;29;20442;-84
2023/06/16 07:52:47;;;;;;;5.10;4.60;;;23.70;51.60;;;;;;4864597;29;20484;-84
2023/06/16 07:55:59;;;;;;;6.93;5.00;;;23.70;50.80;;;;;;4882384;29;20490;-84
2023/06/16 07:58:53;;;;;;;5.93;4.70;;;23.80;50.80;;;;;;4879771;29;20439;-85
2023/06/16 08:05:58;;;;;;;6.20;5.70;;;24.30;50.00;;;;;;4864213;29;20611;-84
2023/06/16 08:08:41;;;;;;;5.07;4.40;;;24.50;49.40;;;;;;4868861;29;20498;-85
2023/06/16 08:15:34;;;;;;;6.33;4.90;;;24.70;49.70;;;;;;4886250;29;20453;-85
2023/06/16 08:22:00;;;;;;;4.73;4.20;;;24.50;49.00;;;;;;4843518;29;21135;-83
2023/06/16 08:24:53;;;;;;;5.20;4.40;;;24.50;49.50;;;;;;4867154;29;21292;-85
2023/06/16 08:27:42;;;;;;;5.03;4.63;;;24.90;49.60;;;;;;4870071;29;20463;-85
2023/06/16 08:30:31;;;;;;;4.90;4.40;;;25.60;49.20;;;;;;4866338;29;20500;-85
2023/06/16 08:33:20;;;;;;;4.60;4.20;;;25.60;46.40;;;;;;4873454;29;20475;-84
2023/06/16 08:36:06;;;;;;;4.70;4.10;;;25.30;47.10;;;;;;4869739;29;20487;-83
2023/06/16 08:38:52;;;;;;;4.30;3.87;;;25.30;46.10;;;;;;4884187;29;20464;-86
2023/06/16 08:41:58;;;;;;;7.60;4.40;;;25.80;45.90;;;;;;4878522;29;20483;-84
2023/06/16 08:44:54;;;;;;;3.80;3.50;;;25.70;46.10;;;;;;4871269;29;20456;-87
2023/06/16 08:47:31;;;;;;;4.67;3.70;;;25.80;45.70;;;;;;4869424;29;20471;-83
2023/06/16 08:50:19;;;;;;;5.83;4.10;;;25.80;44.90;;;;;;4867061;29;20476;-85
2023/06/16 08:52:57;;;;;;;5.43;3.70;;;27.10;42.80;;;;;;4856340;29;21066;-85
2023/06/16 08:56:02;;;;;;;5.17;4.70;;;27.50;41.50;;;;;;4867177;29;20487;-86
2023/06/16 08:58:57;;;;;;;6.20;3.70;;;27.00;42.50;;;;;;4855921;29;20490;-82
2023/06/16 09:04:55;;;;;;;4.17;3.53;;;27.40;42.50;;;;;;4880049;29;20469;-85
2023/06/16 09:07:32;;;;;;;3.80;3.40;;;27.10;42.70;;;;;;4881357;29;20499;-82
2023/06/16 09:10:21;;;;;;;6.87;3.30;;;28.10;39.10;;;;;;4883387;29;20467;-84
2023/06/16 09:13:00;;;;;;;3.20;2.90;;;29.30;35.70;;;;;;4881925;29;20461;-84
2023/06/16 09:16:00;;;;;;;3.63;3.07;;;29.00;36.00;;;;;;4864261;29;20479;-85
2023/06/16 09:19:25;;;;;;;3.33;3.03;;;28.50;36.90;;;;;;4871091;29;20542;-86
2023/06/16 09:22:37;;;;;;;3.73;3.30;;;29.20;34.80;;;;;;4866843;29;21731;-85
2023/06/16 09:28:47;;;;;;;;;;;;;;;;;;;;;
2023/06/16 09:32:09;;;;;;;3.67;3.37;;;30.50;31.90;;;;;;4888553;29;20454;-86
2023/06/16 09:34:38;;;;;;;4.50;3.47;;;30.60;31.60;;;;;;4858515;29;20447;-83
2023/06/16 09:40:45;;;;;;;3.80;3.40;;;30.10;32.70;;;;;;4886352;29;20486;-85
2023/06/16 09:47:06;;;;;;;3.90;3.60;;;31.60;31.10;;;;;;4881070;29;20736;-85
2023/06/16 09:49:57;;;;;;;3.33;3.13;;;31.70;30.40;;;;;;4887099;29;20507;-84
2023/06/16 09:53:29;;;;;;;3.30;2.80;;;31.90;29.80;;;;;;4873261;29;20571;-86
2023/06/16 09:56:25;;;;;;;3.20;2.63;;;32.00;30.10;;;;;;4871569;29;20480;-85
2023/06/16 09:59:18;;;;;;;3.90;3.10;;;31.60;31.40;;;;;;4880956;29;20962;-85
2023/06/16 10:02:12;;;;;;;3.33;3.03;;;31.70;30.60;;;;;;4865170;29;20484;-82
2023/06/16 10:05:47;;;;;;;2.80;2.60;;;31.70;30.00;;;;;;4832781;29;20505;-83
2023/06/16 10:08:44;;;;;;;3.67;3.37;;;32.90;29.40;;;;;;4829945;29;20466;-86
2023/06/16 10:11:51;;;;;;;3.10;2.80;;;33.70;29.30;;;;;;4841091;29;20466;-85
2023/06/16 10:14:48;;;;;;;4.07;3.57;;;34.70;28.20;;;;;;4828180;29;20455;-85
2023/06/16 10:21:13;;;;;;;3.87;3.50;;;34.70;28.10;;;;;;4830869;29;20485;-86
2023/06/16 10:23:44;;;;;;;3.67;3.37;;;34.90;28.00;;;;;;4852672;29;20469;-85
2023/06/16 10:26:20;;;;;;;3.80;3.40;;;34.90;28.00;;;;;;4834335;29;20457;-86
2023/06/16 10:32:45;;;;;;;3.80;3.50;;;35.70;27.20;;;;;;4856692;29;20474;-85
2023/06/16 10:35:25;;;;;;;3.30;3.00;;;35.40;27.20;;;;;;4831330;29;20473;-87
2023/06/16 10:39:05;;;;;;;3.57;3.27;;;35.10;26.80;;;;;;4858504;29;20445;-83
2023/06/16 10:42:19;;;;;;;3.50;3.30;;;34.40;27.30;;;;;;4785509;29;20486;-86
2023/06/16 10:45:41;;;;;;;3.60;3.30;;;33.90;27.80;;;;;;4817090;29;20504;-83
2023/06/16 10:49:22;;;;;;;3.73;3.43;;;34.10;27.50;;;;;;4841081;29;20515;-86
2023/06/16 10:52:12;;;;;;;3.13;2.60;;;33.70;27.70;;;;;;4807968;29;20522;-85
2023/06/16 10:55:42;;;;;;;3.83;3.40;;;34.20;27.60;;;;;;4820724;29;21684;-86
2023/06/16 10:58:39;;;;;;;3.27;3.07;;;34.30;27.20;;;;;;4806258;29;20510;-86
2023/06/16 11:02:10;;;;;;;3.30;3.00;;;34.40;27.30;;;;;;4821540;29;20749;-84
2023/06/16 11:05:48;;;;;;;2.93;2.73;;;34.00;27.40;;;;;;4821746;29;20464;-84
2023/06/16 11:16:16;;;;;;;3.30;3.10;;;34.10;26.70;;;;;;4815575;29;20557;-85
2023/06/16 11:19:57;;;;;;;5.43;3.47;;;35.10;26.70;;;;;;4837856;29;20453;-84
2023/06/16 11:26:31;;;;;;;3.50;3.20;;;35.10;25.20;;;;;;4816599;29;20539;-83
2023/06/16 11:29:29;;;;;;;4.20;3.40;;;34.50;25.60;;;;;;4831461;29;20523;-85
2023/06/16 11:38:44;;;;;;;;;;;;;;;;;;;;;
2023/06/16 11:41:38;;;;;;;3.73;3.43;;;32.50;26.80;;;;;;4832632;29;20464;-87
2023/06/16 11:44:20;;;;;;;3.27;2.97;;;33.10;27.40;;;;;;4832411;29;20464;-86
2023/06/16 11:47:47;;;;;;;3.90;3.60;;;34.10;27.00;;;;;;4885889;29;20448;-86
2023/06/16 11:51:23;;;;;;;3.43;3.13;;;34.20;26.40;;;;;;4823132;29;20506;-85
2023/06/16 11:54:06;;;;;;;5.10;3.30;;;33.80;26.20;;;;;;4833195;29;20496;-85
2023/06/16 11:56:53;;;;;;;4.03;3.73;;;33.80;26.40;;;;;;4831585;29;20550;-85
2023/06/16 11:59:59;;;;;;;3.90;3.60;;;33.70;26.60;;;;;;4832417;29;20481;-84
2023/06/16 12:02:45;;;;;;;3.73;3.43;;;34.10;26.10;;;;;;4903555;23;20594;-84
2023/06/16 12:09:35;;;;;;;3.83;3.53;;;34.10;25.80;;;;;;4852623;29;20468;-84
2023/06/16 12:12:52;;;;;;;3.87;3.57;;;34.10;25.30;;;;;;4861829;29;20464;-85
2023/06/16 12:16:21;;;;;;;3.67;3.37;;;33.30;25.90;;;;;;4845835;29;20461;-82
2023/06/16 12:23:33;;;;;;;3.50;3.20;;;33.80;26.70;;;;;;4918600;29;20493;-84
2023/06/16 12:27:01;;;;;;;3.67;3.37;;;33.40;26.70;;;;;;4866910;29;20523;-82
2023/06/16 12:30:03;;;;;;;3.20;3.00;;;33.10;27.30;;;;;;4860801;29;20458;-83
2023/06/16 12:33:10;;;;;;;4.20;3.90;;;33.90;26.30;;;;;;4900918;29;20455;-85
2023/06/16 12:36:43;;;;;;;3.50;3.30;;;33.30;27.10;;;;;;4850634;29;20516;-84
2023/06/16 13:15:08;;;;;;;4.67;4.27;;;32.80;26.60;;;;;;4915488;29;20477;-85
2023/06/16 13:19:15;;;;;;;;;;;;;;;;;;;;;
2023/06/16 13:23:23;;;;;;;;;;;;;;;;;;;;;
2023/06/16 13:26:28;;;;;;;3.83;3.53;;;32.00;28.20;;;;;;4824187;29;20500;-84
2023/06/16 13:38:12;;;;;;;4.20;3.90;;;31.20;28.70;;;;;;4738813;30;20540;-82
2023/06/16 13:41:52;;;;;;;3.83;3.43;;;31.50;29.10;;;;;;4739390;30;20450;-85
2023/06/16 13:49:21;;;;;;;4.10;3.40;;;31.50;27.80;;;;;;4735403;30;20531;-86
2023/06/16 14:18:52;;;;;;;;;;;;;;;;;;;;;
2023/06/16 14:34:17;;;;;;;;;;;;;;;;;;;;;
2023/06/16 14:37:51;;;;;;;4.10;3.70;;;31.30;28.10;;;;;;4802990;29;20484;-87
2023/06/16 14:40:48;;;;;;;4.10;3.70;;;31.00;27.80;;;;;;4881568;29;20575;-86
2023/06/16 14:43:41;;;;;;;4.53;4.13;;;31.30;27.90;;;;;;4859219;29;20636;-86
2023/06/16 14:46:34;;;;;;;4.80;4.40;;;31.00;27.80;;;;;;4855492;29;20482;-87
2023/06/16 14:49:27;;;;;;;4.60;4.20;;;31.00;28.40;;;;;;4846721;29;20461;-86
2023/06/16 14:55:28;;;;;;;4.50;3.93;;;31.30;28.60;;;;;;4865239;29;20504;-85
2023/06/16 14:58:12;;;;;;;4.27;3.97;;;31.30;28.40;;;;;;4894895;29;20482;-84
2023/06/16 15:01:06;;;;;;;4.20;3.80;;;31.20;28.40;;;;;;4879192;29;20557;-84
2023/06/16 15:03:51;;;;;;;4.20;3.90;;;30.80;28.50;;;;;;4879854;29;20498;-84
2023/06/16 15:06:44;;;;;;;3.90;3.60;;;30.60;28.90;;;;;;4907634;29;20533;-83
2023/06/16 15:09:44;;;;;;;6.23;4.10;;;30.90;29.00;;;;;;4885555;29;20541;-84
2023/06/16 15:12:19;;;;;;;4.40;3.83;;;30.70;29.00;;;;;;4905446;29;21482;-83
2023/06/16 15:14:58;;;;;;;4.67;4.27;;;30.90;28.80;;;;;;4893477;29;20465;-85
2023/06/16 15:17:41;;;;;;;5.00;4.60;;;30.70;28.80;;;;;;4891024;29;20494;-83
2023/06/16 15:20:15;;;;;;;5.30;4.83;;;30.70;29.00;;;;;;4899553;29;20480;-84
2023/06/16 15:22:55;;;;;;;6.87;4.10;;;30.80;29.00;;;;;;4886223;29;20465;-85
2023/06/16 15:25:39;;;;;;;5.30;4.90;;;30.90;28.70;;;;;;4903027;29;20522;-84
2023/06/16 15:28:19;;;;;;;5.00;4.60;;;30.60;28.70;;;;;;4893257;29;20955;-84
2023/06/16 15:31:24;;;;;;;4.90;4.07;;;30.30;30.20;;;;;;4874856;29;20494;-84
2023/06/16 15:34:22;;;;;;;4.20;3.80;;;30.40;31.00;;;;;;4903503;29;20466;-84
2023/06/16 15:37:05;;;;;;;4.97;4.57;;;30.50;28.70;;;;;;4892520;29;20490;-83
2023/06/16 15:39:43;;;;;;;5.07;4.40;;;30.40;29.60;;;;;;4890344;29;20466;-83
2023/06/16 15:43:01;;;;;;;5.43;4.30;;;30.40;30.10;;;;;;4892538;29;20506;-84
2023/06/16 15:45:57;;;;;;;4.63;4.23;;;30.30;29.60;;;;;;4823839;29;21142;-83
2023/06/16 15:48:33;;;;;;;4.60;4.20;;;30.50;29.70;;;;;;4885013;29;22435;-84
2023/06/16 15:51:34;;;;;;;3.83;3.47;;;30.80;28.90;;;;;;4907345;29;20596;-82
2023/06/16 15:54:30;;;;;;;5.50;4.40;;;30.60;29.60;;;;;;4891932;29;20466;-85
2023/06/16 15:57:06;;;;;;;5.27;4.03;;;30.80;29.20;;;;;;4890452;29;20493;-86
2023/06/16 16:00:08;;;;;;;4.03;3.67;;;30.80;29.30;;;;;;4881086;29;20472;-86
2023/06/16 16:02:41;;;;;;;5.33;4.17;;;30.70;29.90;;;;;;4892995;29;20491;-85
2023/06/16 16:05:35;;;;;;;;;;;;;;;;;;;;;
2023/06/16 16:08:20;;;;;;;4.10;3.80;;;30.60;28.40;;;;;;4917588;29;20466;-82
2023/06/16 16:14:38;;;;;;;3.87;3.40;;;30.50;28.50;;;;;;4900071;29;20478;-85
2023/06/16 16:17:28;;;;;;;4.70;4.30;;;30.30;28.30;;;;;;4907432;29;20498;-86
2023/06/16 16:20:14;;;;;;;4.80;4.40;;;30.10;28.30;;;;;;4895647;29;20478;-84
2023/06/16 16:22:45;;;;;;;4.80;4.40;;;29.80;28.50;;;;;;4899753;29;20472;-84
2023/06/16 16:25:19;;;;;;;4.83;4.37;;;29.80;28.70;;;;;;4916193;29;20463;-84
2023/06/16 16:28:01;;;;;;;4.23;3.83;;;30.10;28.60;;;;;;4904504;29;20711;-84
2023/06/16 16:30:42;;;;;;;4.33;3.47;;;30.30;29.30;;;;;;4905646;29;20515;-83
2023/06/16 16:33:29;;;;;;;3.83;3.53;;;30.30;28.40;;;;;;4906526;29;20519;-81
2023/06/16 16:36:03;;;;;;;4.10;3.17;;;30.40;28.90;;;;;;4898103;29;20941;-85
2023/06/16 16:38:44;;;;;;;4.50;4.10;;;30.40;29.00;;;;;;4905694;29;20565;-84
2023/06/16 16:41:13;;;;;;;4.90;4.30;;;30.70;29.00;;;;;;4904122;29;20478;-84
2023/06/16 16:43:47;;;;;;;4.33;3.93;;;30.50;29.20;;;;;;4904822;29;20465;-84
2023/06/16 16:46:26;;;;;;;4.60;4.20;;;30.30;28.50;;;;;;4905760;29;20447;-83
2023/06/16 16:48:57;;;;;;;5.03;4.63;;;30.50;28.50;;;;;;4906161;29;20462;-84
2023/06/16 16:51:34;;;;;;;5.20;4.80;;;30.60;28.00;;;;;;4919128;29;20581;-86
2023/06/16 16:54:03;;;;;;;4.43;3.97;;;30.50;28.70;;;;;;4924522;29;20463;-84
2023/06/16 16:56:45;;;;;;;4.50;3.90;;;30.40;28.30;;;;;;4909457;29;20458;-84
2023/06/16 16:59:11;;;;;;;4.70;4.27;;;30.50;28.40;;;;;;4913497;29;20494;-85
2023/06/16 17:01:41;;;;;;;4.40;4.07;;;30.50;29.30;;;;;;4904199;29;20486;-84
2023/06/16 17:04:09;;;;;;;6.90;5.37;;;30.60;28.60;;;;;;4903846;29;20466;-83
2023/06/16 17:06:37;;;;;;;5.90;4.60;;;30.50;28.30;;;;;;4906022;29;20459;-85
2023/06/16 17:09:04;;;;;;;4.20;3.80;;;30.30;28.70;;;;;;4906896;29;20534;-83
2023/06/16 17:11:32;;;;;;;4.10;3.80;;;30.30;29.50;;;;;;4920138;29;20529;-83
2023/06/16 17:13:59;;;;;;;4.20;3.50;;;30.20;29.20;;;;;;4906142;29;20530;-85
2023/06/16 17:16:26;;;;;;;4.57;3.77;;;30.40;29.30;;;;;;4917202;29;20462;-84
2023/06/16 17:18:53;;;;;;;5.10;4.10;;;30.50;29.20;;;;;;4909553;29;20483;-85
2023/06/16 17:21:20;;;;;;;4.10;3.70;;;30.50;29.00;;;;;;4907169;29;20573;-84
2023/06/16 17:23:47;;;;;;;3.57;3.27;;;30.10;29.50;;;;;;4923699;29;20455;-82
2023/06/16 17:26:15;;;;;;;3.70;3.40;;;30.00;29.20;;;;;;4925954;29;20451;-84
2023/06/16 17:28:43;;;;;;;4.40;4.00;;;29.90;30.40;;;;;;4908398;29;20497;-83
2023/06/16 17:31:10;;;;;;;4.70;4.30;;;29.90;29.40;;;;;;4916579;29;20489;-85
2023/06/16 17:33:37;;;;;;;6.27;3.70;;;30.30;29.20;;;;;;4923603;29;20459;-86
2023/06/16 17:36:06;;;;;;;4.30;3.90;;;30.40;29.20;;;;;;4904562;29;20450;-84
2023/06/16 17:38:35;;;;;;;5.10;3.70;;;30.20;29.30;;;;;;4903505;29;20884;-84
2023/06/16 17:41:19;;;;;;;3.93;3.43;;;29.90;29.50;;;;;;4919115;29;21019;-84
2023/06/16 17:44:09;;;;;;;4.00;3.70;;;29.80;29.90;;;;;;4934163;29;20523;-84
2023/06/16 17:46:59;;;;;;;4.37;4.07;;;30.00;29.90;;;;;;4930599;29;20535;-86
2023/06/16 17:50:12;;;;;;;;;;;;;;;;;;;;;
2023/06/16 18:02:13;;;;;;;4.20;3.80;;;29.60;29.80;;;;;;4953518;29;20485;-85
2023/06/16 18:05:19;;;;;;;4.10;3.80;;;29.70;29.80;;;;;;4947648;29;20469;-85
2023/06/16 18:09:11;;;;;;;4.27;3.87;;;29.40;30.00;;;;;;4906299;29;20455;-84
2023/06/16 18:12:33;;;;;;;4.03;3.63;;;29.20;30.20;;;;;;4854647;29;20547;-84
2023/06/16 18:29:39;;;;;;;4.13;3.73;;;28.70;30.60;;;;;;4945146;29;20421;-84
2023/06/16 18:34:59;;;;;;;3.93;3.63;;;28.70;30.90;;;;;;4612629;26;20473;-84
2023/06/16 18:38:08;;;;;;;5.17;3.60;;;28.60;31.10;;;;;;4925936;29;20486;-83
2023/06/16 18:45:20;;;;;;;6.30;3.90;;;28.60;31.40;;;;;;4926471;29;20498;-84
2023/06/16 18:48:41;;;;;;;5.17;4.37;;;28.50;31.40;;;;;;4918428;29;20478;-85
2023/06/16 18:51:56;;;;;;;3.80;3.50;;;28.30;31.80;;;;;;4928955;29;20912;-85
2023/06/16 18:54:54;;;;;;;3.80;3.50;;;28.20;32.20;;;;;;4894658;29;20442;-85
2023/06/16 18:58:26;;;;;;;4.37;4.00;;;28.20;32.40;;;;;;4907468;29;20494;-83
2023/06/16 19:01:19;;;;;;;4.43;4.03;;;28.10;32.50;;;;;;4910480;29;20545;-85
2023/06/16 19:11:03;;;;;;;5.83;5.17;;;28.20;33.00;;;;;;4908663;29;20530;-84
2023/06/16 19:14:03;;;;;;;4.43;4.03;;;28.20;33.20;;;;;;4901086;29;20459;-85
2023/06/16 19:17:12;;;;;;;4.00;3.60;;;28.10;33.30;;;;;;4919446;29;20459;-84
2023/06/16 19:20:12;;;;;;;5.60;4.00;;;28.10;33.70;;;;;;4898041;29;20797;-85
2023/06/16 19:36:13;;;;;;;4.07;3.67;;;27.90;34.40;;;;;;1383328;26;20508;-84
2023/06/16 19:39:04;;;;;;;4.73;4.23;;;27.90;34.60;;;;;;4959467;29;20484;-84
2023/06/16 19:42:12;;;;;;;5.27;4.77;;;27.70;34.60;;;;;;4927640;29;20490;-83
2023/06/16 19:45:06;;;;;;;4.77;4.37;;;27.70;34.80;;;;;;4935178;29;20526;-83
2023/06/16 19:48:01;;;;;;;;;;;;;;;;;;;;;
2023/06/16 19:50:51;;;;;;;5.93;4.43;;;27.70;35.10;;;;;;4932202;29;20461;-85
2023/06/16 19:57:02;;;;;;;7.07;5.90;;;27.70;35.20;;;;;;4943293;29;20461;-85
2023/06/16 20:03:15;;;;;;;6.20;5.60;;;27.70;35.60;;;;;;3259902;26;21187;-84
2023/06/16 20:06:08;;;;;;;5.50;5.00;;;27.70;35.70;;;;;;4967217;29;20479;-84
2023/06/16 20:09:34;;;;;;;;;;;;;;;;;;;;;
2023/06/16 20:16:43;;;;;;;6.63;5.27;;;27.60;36.20;;;;;;4904494;29;20467;-83
2023/06/16 20:19:54;;;;;;;;;;;;;;;;;;;;;
2023/06/16 20:22:50;;;;;;;8.77;6.23;;;27.40;36.80;;;;;;4961593;28;20874;-84
2023/06/16 20:25:44;;;;;;;5.67;5.10;;;27.40;37.10;;;;;;4939605;28;20451;-83
2023/06/16 20:28:58;;;;;;;5.57;5.07;;;27.60;37.70;;;;;;4940689;29;20457;-83
2023/06/16 20:31:56;;;;;;;6.77;6.10;;;27.60;37.30;;;;;;4924690;28;20482;-83
2023/06/16 20:35:04;;;;;;;6.70;4.87;;;27.30;37.40;;;;;;4932959;29;20485;-82